createdAt,value
2018-09-12T00:02:01.905Z,20.23
2018-09-12T00:07:05.696Z,20.16
2018-09-12T00:12:09.299Z,20.02
2018-09-12T00:17:12.853Z,20.04
2018-09-12T00:27:54.481Z,19.69
2018-09-12T00:32:59.769Z,19.53
2018-09-12T00:38:03.344Z,19.41
2018-09-12T00:43:06.986Z,19.46
2018-09-12T00:48:10.738Z,19.40
2018-09-12T00:53:14.464Z,19.30
2018-09-12T00:58:17.993Z,19.41
2018-09-12T01:03:22.406Z,19.52
2018-09-12T01:08:26.010Z,19.63
2018-09-12T01:13:29.596Z,19.69
2018-09-12T01:18:33.207Z,19.76
2018-09-12T01:23:36.812Z,19.77
2018-09-12T01:28:40.381Z,19.85
2018-09-12T01:33:44.045Z,20.02
2018-09-12T01:38:47.685Z,20.01
2018-09-12T01:43:51.217Z,20.04
2018-09-12T01:48:54.862Z,20.16
2018-09-12T01:53:58.389Z,20.29
2018-09-12T01:59:01.942Z,20.37
2018-09-12T02:04:05.844Z,20.41
2018-09-12T02:09:11.927Z,20.36
2018-09-12T02:14:15.524Z,20.38
2018-09-12T02:19:19.229Z,20.34
2018-09-12T02:24:22.824Z,20.39
2018-09-12T02:29:26.559Z,20.39
2018-09-12T02:34:30.080Z,20.28
2018-09-12T02:39:33.757Z,20.29
2018-09-12T02:44:37.448Z,20.23
2018-09-12T02:49:40.984Z,20.18
2018-09-12T02:54:44.878Z,20.10
2018-09-12T02:59:48.456Z,20.11
2018-09-12T03:04:52.877Z,20.11
2018-09-12T03:09:56.439Z,20.12
2018-09-12T03:14:59.970Z,20.12
2018-09-12T03:20:03.691Z,20.09
2018-09-12T03:25:07.386Z,20.11
2018-09-12T03:30:12.276Z,20.05
2018-09-12T03:35:16.156Z,20.01
2018-09-12T03:40:24.117Z,19.94
2018-09-12T03:45:27.792Z,19.98
2018-09-12T03:50:31.341Z,19.84
2018-09-12T03:55:35.028Z,19.66
2018-09-12T04:00:38.696Z,19.50
2018-09-12T04:05:42.729Z,19.45
2018-09-12T04:10:46.454Z,19.07
2018-09-12T04:15:50.222Z,19.03
2018-09-12T04:20:53.933Z,18.92
2018-09-12T04:25:57.551Z,18.89
2018-09-12T04:31:01.270Z,18.74
2018-09-12T04:36:05.195Z,18.54
2018-09-12T04:41:08.796Z,18.38
2018-09-12T04:46:12.349Z,18.40
2018-09-12T04:51:15.938Z,18.35
2018-09-12T04:56:19.789Z,18.50
2018-09-12T05:01:23.342Z,18.55
2018-09-12T05:06:27.118Z,18.67
2018-09-12T05:11:30.684Z,18.76
2018-09-12T05:16:35.843Z,18.82
2018-09-12T05:21:39.609Z,18.83
2018-09-12T05:26:43.322Z,18.85
2018-09-12T05:31:47.138Z,18.90
2018-09-12T05:36:50.770Z,18.97
2018-09-12T05:41:54.275Z,19.04
2018-09-12T05:46:58.057Z,19.20
2018-09-12T05:52:01.602Z,19.24
2018-09-12T05:57:05.452Z,19.26
2018-09-12T06:02:08.962Z,19.34
2018-09-12T06:07:13.039Z,19.39
2018-09-12T06:12:16.474Z,19.50
2018-09-12T06:17:20.070Z,19.60
2018-09-12T06:22:23.628Z,19.58
2018-09-12T06:27:27.454Z,19.52
2018-09-12T06:32:31.132Z,19.68
2018-09-12T06:37:34.644Z,19.74
2018-09-12T06:42:38.231Z,19.75
2018-09-12T06:47:41.857Z,19.95
2018-09-12T06:52:45.474Z,20.06
2018-09-12T06:57:49.037Z,20.14
2018-09-12T07:02:52.824Z,20.12
2018-09-12T07:07:56.345Z,20.35
2018-09-12T07:12:59.965Z,20.37
2018-09-12T07:18:03.516Z,20.13
2018-09-12T07:23:07.534Z,20.16
2018-09-12T07:28:11.180Z,20.21
2018-09-12T07:33:14.817Z,20.46
2018-09-12T07:38:18.599Z,20.60
2018-09-12T07:43:22.093Z,20.72
2018-09-12T07:48:25.716Z,20.94
2018-09-12T07:53:36.252Z,21.02
2018-09-12T07:58:39.830Z,21.15
2018-09-12T08:03:43.490Z,21.13
2018-09-12T08:08:47.090Z,21.29
2018-09-12T08:13:50.785Z,21.69
2018-09-12T08:18:54.363Z,21.84
2018-09-12T08:23:58.433Z,22.12
2018-09-12T08:29:01.983Z,22.01
2018-09-12T08:34:05.616Z,21.80
2018-09-12T08:39:10.266Z,21.92
2018-09-12T08:44:13.832Z,21.95
2018-09-12T08:49:17.564Z,22.17
2018-09-12T08:54:21.164Z,22.26
2018-09-12T08:59:24.884Z,22.46
2018-09-12T09:04:28.598Z,22.69
2018-09-12T09:09:32.726Z,23.06
2018-09-12T09:14:36.346Z,23.44
2018-09-12T09:19:41.746Z,23.49
2018-09-12T09:24:45.594Z,23.40
2018-09-12T09:29:50.723Z,23.23
2018-09-12T09:34:54.494Z,23.50
2018-09-12T09:39:58.093Z,23.74
2018-09-12T09:45:03.352Z,23.61
2018-09-12T09:50:06.934Z,23.53
2018-09-12T09:55:10.551Z,23.57
2018-09-12T10:05:37.216Z,23.79
2018-09-12T10:10:40.780Z,23.63
2018-09-12T10:15:44.386Z,23.57
2018-09-12T10:20:48.005Z,23.79
2018-09-12T10:25:51.913Z,23.89
2018-09-12T10:30:55.659Z,23.65
2018-09-12T10:36:08.583Z,23.61
2018-09-12T10:41:12.158Z,23.57
2018-09-12T10:46:15.713Z,23.41
2018-09-12T10:51:19.285Z,23.45
2018-09-12T10:56:22.883Z,23.75
2018-09-12T11:01:26.509Z,24.04
2018-09-12T11:06:30.031Z,24.26
2018-09-12T11:11:33.608Z,24.28
2018-09-12T11:16:37.399Z,24.14
2018-09-12T11:21:43.922Z,23.86
2018-09-12T11:26:52.383Z,23.70
2018-09-12T11:31:59.810Z,23.41
2018-09-12T11:37:03.475Z,23.22
2018-09-12T11:42:07.134Z,23.10
2018-09-12T11:47:10.792Z,23.20
2018-09-12T11:52:14.395Z,23.25
2018-09-12T11:57:18.063Z,22.98
2018-09-12T12:02:21.795Z,22.85
2018-09-12T12:07:25.354Z,22.66
2018-09-12T12:12:28.881Z,22.94
2018-09-12T12:17:42.228Z,22.94
2018-09-12T12:22:45.854Z,23.18
2018-09-12T12:27:54.333Z,23.07
2018-09-12T12:32:59.932Z,23.05
2018-09-12T12:38:03.687Z,22.97
2018-09-12T12:43:07.178Z,22.76
2018-09-12T12:48:13.943Z,22.52
2018-09-12T12:53:20.761Z,22.39
2018-09-12T12:58:24.509Z,22.34
2018-09-12T13:03:28.116Z,21.94
2018-09-12T13:08:31.790Z,22.50
2018-09-12T13:13:35.486Z,22.97
2018-09-12T13:18:39.177Z,21.93
2018-09-12T13:23:42.756Z,21.28
2018-09-12T13:28:46.359Z,20.53
2018-09-12T13:33:49.964Z,20.20
2018-09-12T13:38:53.929Z,20.12
2018-09-12T13:43:57.469Z,20.47
2018-09-12T13:49:01.063Z,20.53
2018-09-12T13:54:04.677Z,20.43
2018-09-12T13:59:08.287Z,20.26
2018-09-12T14:04:11.892Z,20.55
2018-09-12T14:09:16.281Z,20.37
2018-09-12T14:14:20.031Z,20.60
2018-09-12T14:19:23.819Z,20.45
2018-09-12T14:24:27.660Z,20.14
2018-09-12T14:29:31.282Z,20.05
2018-09-12T14:34:35.134Z,19.97
2018-09-12T14:39:38.831Z,19.76
2018-09-12T14:44:42.479Z,19.56
2018-09-12T14:49:46.105Z,19.43
2018-09-12T14:54:49.727Z,19.08
2018-09-12T14:59:53.371Z,18.83
2018-09-12T15:04:57.062Z,18.93
2018-09-12T15:10:00.608Z,18.72
2018-09-12T15:15:04.143Z,18.45
2018-09-12T15:20:08.479Z,18.57
2018-09-12T15:25:14.158Z,18.60
2018-09-12T15:30:21.064Z,18.32
2018-09-12T15:35:24.736Z,18.19
2018-09-12T15:40:30.087Z,18.12
2018-09-12T15:45:33.864Z,18.11
2018-09-12T15:50:37.419Z,17.94
2018-09-12T15:55:40.968Z,17.90
2018-09-12T16:00:44.749Z,17.90
2018-09-12T16:05:48.317Z,17.91
2018-09-12T16:10:51.947Z,17.50
2018-09-12T16:15:55.543Z,17.47
2018-09-12T16:20:59.174Z,17.39
2018-09-12T16:26:02.814Z,17.41
2018-09-12T16:31:06.470Z,17.54
2018-09-12T16:36:10.069Z,17.59
2018-09-12T16:41:13.679Z,17.70
2018-09-12T16:46:17.352Z,17.28
2018-09-12T16:51:21.064Z,17.49
2018-09-12T16:56:30.833Z,17.41
2018-09-12T17:01:34.216Z,17.37
2018-09-12T17:06:39.172Z,17.43
2018-09-12T17:11:43.257Z,17.21
2018-09-12T17:16:46.868Z,17.27
2018-09-12T17:21:50.370Z,17.36
2018-09-12T17:26:54.796Z,17.14
2018-09-12T17:31:58.350Z,17.22
2018-09-12T17:37:02.209Z,17.00
2018-09-12T17:42:06.505Z,17.16
2018-09-12T17:47:10.174Z,17.08
2018-09-12T17:52:14.849Z,17.14
2018-09-12T17:57:18.686Z,17.10
2018-09-12T18:02:33.488Z,16.99
2018-09-12T18:07:37.860Z,17.00
2018-09-12T18:12:41.629Z,16.88
2018-09-12T18:17:45.155Z,16.87
2018-09-12T18:22:49.466Z,16.71
2018-09-12T18:27:53.089Z,16.71
2018-09-12T18:32:56.610Z,16.83
2018-09-12T18:38:00.925Z,16.92
2018-09-12T18:43:05.626Z,16.83
2018-09-12T18:48:09.267Z,16.72
2018-09-12T18:53:13.012Z,16.75
2018-09-12T18:58:16.627Z,16.44
2018-09-12T19:03:20.153Z,16.46
2018-09-12T19:08:23.722Z,16.44
2018-09-12T19:13:27.395Z,16.43
2018-09-12T19:18:30.948Z,16.43
2018-09-12T19:23:34.818Z,16.32
2018-09-12T19:28:38.462Z,16.23
2018-09-12T19:33:42.211Z,16.39
2018-09-12T19:38:45.822Z,16.45
2018-09-12T19:43:49.454Z,16.51
2018-09-12T19:48:53.072Z,16.25
2018-09-12T19:53:56.681Z,16.19
2018-09-12T19:59:00.264Z,16.29
2018-09-12T20:04:03.877Z,16.26
2018-09-12T20:09:09.317Z,16.38
2018-09-12T20:14:13.106Z,16.48
2018-09-12T20:19:18.437Z,16.43
2018-09-12T20:24:22.453Z,16.45
2018-09-12T20:29:26.396Z,16.40
2018-09-12T20:34:30.582Z,16.35
2018-09-12T20:39:34.345Z,16.21
2018-09-12T20:44:38.203Z,16.10
2018-09-12T20:49:42.161Z,16.05
2018-09-12T20:54:45.953Z,15.75
2018-09-12T20:59:50.010Z,15.81
2018-09-12T21:04:53.544Z,15.85
2018-09-12T21:09:57.130Z,15.81
2018-09-12T21:15:00.937Z,15.59
2018-09-12T21:20:04.771Z,15.45
2018-09-12T21:25:08.315Z,15.38
2018-09-12T21:30:18.038Z,15.35
2018-09-12T21:35:21.528Z,15.29
2018-09-12T21:40:25.023Z,15.43
2018-09-12T21:45:28.690Z,15.46
2018-09-12T21:50:32.400Z,15.56
2018-09-12T21:55:35.909Z,15.40
2018-09-12T22:00:39.520Z,15.52
2018-09-12T22:05:43.064Z,15.35
2018-09-12T22:10:46.646Z,15.45
2018-09-12T22:15:50.234Z,15.28
2018-09-12T22:20:53.762Z,15.40
2018-09-12T22:25:57.359Z,15.54
2018-09-12T22:31:01.020Z,15.55
2018-09-12T22:36:04.606Z,15.47
2018-09-12T22:41:08.140Z,15.53
2018-09-12T22:46:11.799Z,15.49
2018-09-12T22:51:15.288Z,15.31
2018-09-12T22:56:18.864Z,15.23
2018-09-12T23:01:23.972Z,15.22
2018-09-12T23:06:27.520Z,15.16
2018-09-12T23:11:31.322Z,15.20
2018-09-12T23:16:41.110Z,15.07
2018-09-12T23:21:44.683Z,15.05
2018-09-12T23:26:48.211Z,14.86
2018-09-12T23:31:51.728Z,14.96
2018-09-12T23:36:55.534Z,15.07
2018-09-12T23:41:59.280Z,15.10
2018-09-12T23:47:02.836Z,15.16
2018-09-12T23:52:06.615Z,15.10
2018-09-12T23:57:10.183Z,15.02
